Terminal Aerodrome Forecast
Issued by NWS Bismarck, ND

Home | Current Version | Previous Version | Text Only | Print | Product List | Glossary On
Versions: 1 2 3 4 5 6 7 8 9 10 11 12 13 14 15 16 17 18
000
FTUS43 KBIS 270533
TAFBIS
TAF
KBIS 270533Z 2706/2806 27006KT P6SM FEW250
     FM270800 31007KT P6SM FEW250
     FM271100 34007KT P6SM SKC
     FM272300 01010KT P6SM SKC
     FM280200 04006KT P6SM SKC=

USA.gov is the U.S. government's official web portal to all federal, state and local government web resources and services.